Time;durP1;ratioP1;P1;durP2;ratioP2;P2;SDS_P1;SDS_P2;PMS_P1;PMS_P2;Temp;Humidity;BMP_temperature;BMP_pressure;BME280_temperature;BME280_humidity;BME280_pressure;Samples;Min_cycle;Max_cycle;Signal;HPM_P1;HPM_P2
2022/09/08 00:01:15;;;;;;;;;;;;;;;28.60;43.63;93871.97;4952675;28;7097;-59
2022/09/08 00:03:44;;;;;;;;;;;;;;;28.59;43.20;93868.44;4951619;28;7620;-60
2022/09/08 00:06:47;;;;;;;;;;;;;;;28.59;43.32;93889.84;4934824;28;7875;-60
2022/09/08 00:09:52;;;;;;;;;;;;;;;28.59;43.43;93898.88;4887704;29;6986;-60
2022/09/08 00:12:34;;;;;;;;;;;;;;;28.59;43.81;93887.81;4901749;29;7484;-59
2022/09/08 00:15:03;;;;;;;;;;;;;;;28.58;42.80;93874.53;4913034;29;7074;-59
2022/09/08 00:17:33;;;;;;;;;;;;;;;28.55;43.45;93876.31;4917874;29;7228;-59
2022/09/08 00:20:17;;;;;;;;;;;;;;;28.55;43.34;93892.94;4919815;29;7294;-59
2022/09/08 00:22:58;;;;;;;;;;;;;;;28.57;43.29;93900.69;4901270;29;8328;-59
2022/09/08 00:25:33;;;;;;;;;;;;;;;28.57;43.56;93907.00;4926777;28;7477;-59
2022/09/08 00:28:14;;;;;;;;;;;;;;;28.56;43.14;93901.97;4928074;29;6868;-59
2022/09/08 00:31:01;;;;;;;;;;;;;;;28.56;43.30;93916.53;4917246;29;7965;-59
2022/09/08 00:33:29;;;;;;;;;;;;;;;28.56;43.53;93927.59;4945257;28;7380;-60
2022/09/08 00:35:55;;;;;;;;;;;;;;;28.54;43.59;93930.16;4939250;28;8956;-59
2022/09/08 00:38:21;;;;;;;;;;;;;;;28.52;43.40;93926.47;4929169;28;7438;-59
2022/09/08 00:40:52;;;;;;;;;;;;;;;28.54;43.35;93932.94;4924331;29;7752;-60
2022/09/08 00:43:39;;;;;;;;;;;;;;;28.55;43.69;93936.44;4978884;28;7080;-60
2022/09/08 00:46:09;;;;;;;;;;;;;;;28.54;43.34;93935.69;5007567;28;7067;-60
2022/09/08 00:49:03;;;;;;;;;;;;;;;28.53;43.16;93931.47;4990417;28;7484;-59
2022/09/08 00:51:32;;;;;;;;;;;;;;;28.53;43.08;93928.69;4989081;28;7247;-59
2022/09/08 00:54:02;;;;;;;;;;;;;;;28.51;43.01;93936.06;5004636;28;9615;-59
2022/09/08 00:56:29;;;;;;;;;;;;;;;28.51;43.49;93939.56;4988793;28;7003;-59
2022/09/08 00:59:09;;;;;;;;;;;;;;;28.50;43.34;93948.38;4983763;28;10547;-59
2022/09/08 01:01:35;;;;;;;;;;;;;;;28.48;43.22;93951.72;4981160;28;7399;-59
2022/09/08 01:04:06;;;;;;;;;;;;;;;28.50;43.16;93956.69;4986502;28;7647;-59
2022/09/08 01:13:09;;;;;;;;;;;;;;;28.48;43.17;93948.94;4951914;28;7647;-59
2022/09/08 01:15:39;;;;;;;;;;;;;;;28.47;43.36;93952.97;4944225;28;9587;-59
2022/09/08 01:18:19;;;;;;;;;;;;;;;28.48;43.08;93970.31;4949394;28;7025;-59
2022/09/08 01:21:29;;;;;;;;;;;;;;;28.48;43.43;93987.66;4934102;28;7003;-59
2022/09/08 01:24:02;;;;;;;;;;;;;;;28.48;43.41;93984.91;4927148;28;9351;-60
2022/09/08 01:26:36;;;;;;;;;;;;;;;28.48;42.81;93973.84;4937132;28;7225;-60
2022/09/08 01:29:15;;;;;;;;;;;;;;;28.47;43.46;93963.31;4942318;28;9445;-60
2022/09/08 01:32:09;;;;;;;;;;;;;;;28.45;43.37;93963.84;4928919;28;7292;-60
2022/09/08 01:34:54;;;;;;;;;;;;;;;28.44;43.04;93959.59;4945365;28;6984;-60
2022/09/08 01:37:23;;;;;;;;;;;;;;;28.45;43.69;93963.13;4934187;28;7548;-59
2022/09/08 01:39:49;;;;;;;;;;;;;;;28.45;43.56;93966.59;4928713;29;7077;-60
2022/09/08 01:42:30;;;;;;;;;;;;;;;28.45;43.24;93954.81;4933744;29;6954;-59
2022/09/08 01:44:57;;;;;;;;;;;;;;;28.43;43.49;93949.81;4988162;28;7277;-59
2022/09/08 01:47:33;;;;;;;;;;;;;;;28.42;43.40;93947.59;5006255;28;8705;-60
2022/09/08 01:50:15;;;;;;;;;;;;;;;28.43;43.36;93940.78;4986792;28;9405;-59
2022/09/08 01:52:50;;;;;;;;;;;;;;;28.44;43.57;93945.03;4980351;28;6915;-60
2022/09/08 01:55:17;;;;;;;;;;;;;;;28.43;43.50;93935.97;4989455;28;7220;-59
2022/09/08 01:57:43;;;;;;;;;;;;;;;28.43;43.60;93932.50;4974109;28;9752;-60
2022/09/08 02:00:13;;;;;;;;;;;;;;;28.40;43.75;93928.78;5007063;28;7149;-59
2022/09/08 02:03:25;;;;;;;;;;;;;;;28.42;43.18;93920.69;5009199;28;10056;-59
2022/09/08 02:06:29;;;;;;;;;;;;;;;28.42;43.25;93925.47;4948179;29;7212;-59
2022/09/08 02:09:20;;;;;;;;;;;;;;;28.41;43.66;93916.41;4931612;29;9543;-59
2022/09/08 02:11:57;;;;;;;;;;;;;;;28.41;43.67;93912.91;4919453;29;9494;-59
2022/09/08 02:14:42;;;;;;;;;;;;;;;28.41;43.69;93927.47;4920341;29;7232;-59
2022/09/08 02:17:19;;;;;;;;;;;;;;;28.38;43.40;93923.75;4918489;29;7091;-59
2022/09/08 02:19:54;;;;;;;;;;;;;;;28.41;43.32;93927.47;4913184;29;7252;-59
2022/09/08 02:22:32;;;;;;;;;;;;;;;28.41;42.76;93919.19;4934174;29;7283;-59
2022/09/08 02:24:59;;;;;;;;;;;;;;;28.40;43.23;93923.25;4918394;29;7216;-59
2022/09/08 02:27:25;;;;;;;;;;;;;;;28.39;43.52;93924.50;4933783;29;7002;-59
2022/09/08 02:29:53;;;;;;;;;;;;;;;28.40;43.51;93925.25;4927311;29;9022;-59
2022/09/08 02:32:22;;;;;;;;;;;;;;;28.41;43.14;93927.47;4930904;29;7551;-60
2022/09/08 02:34:52;;;;;;;;;;;;;;;28.43;43.42;93924.19;4934143;29;6985;-60
2022/09/08 02:37:19;;;;;;;;;;;;;;;28.40;43.11;93931.53;4933794;29;10686;-60
2022/09/08 02:39:45;;;;;;;;;;;;;;;28.39;43.38;93932.81;4917020;29;7526;-60
2022/09/08 02:42:19;;;;;;;;;;;;;;;28.40;42.94;93934.31;4938173;28;6895;-60
2022/09/08 02:45:03;;;;;;;;;;;;;;;28.41;42.91;93926.72;4999637;28;7086;-59
2022/09/08 02:48:08;;;;;;;;;;;;;;;28.40;43.38;93931.53;5011101;28;7234;-60
2022/09/08 02:50:51;;;;;;;;;;;;;;;28.42;43.45;93931.00;4945273;28;9135;-60
2022/09/08 02:53:32;;;;;;;;;;;;;;;28.40;43.37;93928.03;4948441;28;7327;-60
2022/09/08 02:56:13;;;;;;;;;;;;;;;28.38;43.13;93926.53;4938517;28;7213;-60
2022/09/08 02:58:49;;;;;;;;;;;;;;;28.39;43.03;93927.28;4942835;28;8903;-59
2022/09/08 03:01:28;;;;;;;;;;;;;;;28.37;43.22;93921.56;4962980;28;7282;-60
2022/09/08 03:03:56;;;;;;;;;;;;;;;28.38;43.16;93922.28;4948106;28;7374;-59
2022/09/08 03:06:37;;;;;;;;;;;;;;;28.37;42.64;93927.09;4936898;28;7337;-60
2022/09/08 03:09:11;;;;;;;;;;;;;;;28.38;43.50;93929.28;4935273;28;7677;-60
2022/09/08 03:11:47;;;;;;;;;;;;;;;28.38;43.30;93925.81;4966218;28;6990;-59
2022/09/08 03:14:13;;;;;;;;;;;;;;;28.37;43.12;93918.78;4947004;28;9272;-59
2022/09/08 03:16:39;;;;;;;;;;;;;;;28.37;42.93;93932.63;4967214;28;7255;-60
2022/09/08 03:19:07;;;;;;;;;;;;;;;28.36;42.92;93926.34;4964753;28;7264;-60
2022/09/08 03:21:54;;;;;;;;;;;;;;;28.36;43.58;93929.09;4972589;28;9455;-60
2022/09/08 03:24:38;;;;;;;;;;;;;;;28.36;43.09;93928.38;5008554;28;7117;-60
2022/09/08 03:27:28;;;;;;;;;;;;;;;28.35;43.26;93926.88;4974355;28;10068;-60
2022/09/08 03:29:56;;;;;;;;;;;;;;;28.34;43.08;93925.38;5009624;28;10156;-59
2022/09/08 03:32:34;;;;;;;;;;;;;;;28.34;43.03;93922.63;4982582;28;7081;-59
2022/09/08 03:35:04;;;;;;;;;;;;;;;28.34;43.29;93926.13;4987970;28;7303;-59
2022/09/08 03:37:30;;;;;;;;;;;;;;;28.34;43.18;93928.16;4997758;28;7311;-60
2022/09/08 03:39:56;;;;;;;;;;;;;;;28.35;43.10;93921.34;4995692;28;9472;-60
2022/09/08 03:42:37;;;;;;;;;;;;;;;28.36;42.82;93931.16;4999339;28;7223;-60
2022/09/08 03:45:11;;;;;;;;;;;;;;;28.35;43.13;93926.88;4990570;28;9403;-60
2022/09/08 03:47:44;;;;;;;;;;;;;;;28.35;42.95;93930.41;5009063;28;9511;-59
2022/09/08 03:50:13;;;;;;;;;;;;;;;28.35;42.90;93935.19;5001867;28;7706;-60
2022/09/08 03:52:40;;;;;;;;;;;;;;;28.35;42.88;93937.94;4983553;28;9105;-60
2022/09/08 03:55:12;;;;;;;;;;;;;;;28.36;42.68;93931.88;4965037;28;9078;-60
2022/09/08 03:57:39;;;;;;;;;;;;;;;28.35;43.10;93933.16;4987790;28;7175;-60
2022/09/08 04:00:09;;;;;;;;;;;;;;;28.35;42.90;93937.94;5005183;28;7508;-59
2022/09/08 04:02:35;;;;;;;;;;;;;;;28.35;43.01;93947.00;4983197;28;7481;-59
2022/09/08 04:05:09;;;;;;;;;;;;;;;28.36;42.86;93942.22;5006193;28;8274;-59
2022/09/08 04:07:45;;;;;;;;;;;;;;;28.35;42.80;93951.78;4998326;28;8074;-60
2022/09/08 04:10:15;;;;;;;;;;;;;;;28.34;43.25;93948.25;5009945;28;7195;-59
2022/09/08 04:12:53;;;;;;;;;;;;;;;28.33;42.94;93957.84;4995606;28;7223;-60
2022/09/08 04:15:32;;;;;;;;;;;;;;;28.34;42.65;93950.28;4986644;28;7079;-60
2022/09/08 04:18:00;;;;;;;;;;;;;;;28.34;42.89;93964.09;5013057;28;7219;-59
2022/09/08 04:20:39;;;;;;;;;;;;;;;28.34;42.76;93969.63;5004577;28;9394;-60
2022/09/08 04:23:06;;;;;;;;;;;;;;;28.31;42.30;93967.97;5005616;28;7200;-60
2022/09/08 04:25:39;;;;;;;;;;;;;;;28.30;42.56;93967.22;5006249;28;7260;-60
2022/09/08 04:28:07;;;;;;;;;;;;;;;28.31;42.60;93968.72;5008931;28;8471;-60
2022/09/08 04:30:47;;;;;;;;;;;;;;;28.31;42.73;93976.28;5007289;28;8488;-60
2022/09/08 04:33:31;;;;;;;;;;;;;;;28.25;42.76;93959.78;4986926;28;7430;-59
2022/09/08 04:35:57;;;;;;;;;;;;;;;28.29;42.57;93970.53;5009684;28;9710;-60
2022/09/08 04:38:23;;;;;;;;;;;;;;;28.30;42.63;93972.00;4984277;28;10823;-59
2022/09/08 04:40:48;;;;;;;;;;;;;;;28.30;42.32;93974.78;5005971;28;7506;-60
2022/09/08 04:43:18;;;;;;;;;;;;;;;28.30;42.55;93966.47;4989431;28;7700;-60
2022/09/08 04:45:46;;;;;;;;;;;;;;;28.28;42.51;93964.25;4988122;28;9154;-60
2022/09/08 04:48:19;;;;;;;;;;;;;;;28.30;42.05;93974.78;5005898;28;7427;-60
2022/09/08 04:50:52;;;;;;;;;;;;;;;28.28;43.02;93971.81;4987364;28;7279;-59
2022/09/08 04:53:20;;;;;;;;;;;;;;;28.27;42.64;93965.53;5002620;28;7197;-60
2022/09/08 04:55:48;;;;;;;;;;;;;;;28.27;43.33;93962.75;4985542;28;7155;-60
2022/09/08 04:58:17;;;;;;;;;;;;;;;28.26;42.61;93964.06;4988832;28;7221;-59
2022/09/08 05:00:44;;;;;;;;;;;;;;;28.25;43.51;93961.84;5002904;28;7282;-60
2022/09/08 05:03:15;;;;;;;;;;;;;;;28.25;42.92;93953.53;4987182;28;7254;-61
2022/09/08 05:05:47;;;;;;;;;;;;;;;28.26;43.22;93943.94;4984295;28;7189;-60
2022/09/08 05:08:25;;;;;;;;;;;;;;;28.26;43.31;93955.00;5003363;28;7253;-60
2022/09/08 05:10:51;;;;;;;;;;;;;;;28.26;43.48;93943.94;4992479;28;7204;-60
2022/09/08 05:13:20;;;;;;;;;;;;;;;28.25;43.65;93942.47;5006808;28;7317;-61
2022/09/08 05:15:48;;;;;;;;;;;;;;;28.24;43.13;93927.91;5003743;28;7222;-60
2022/09/08 05:18:19;;;;;;;;;;;;;;;28.25;43.55;93931.41;4992645;28;7392;-60
2022/09/08 05:21:09;;;;;;;;;;;;;;;28.25;43.62;93914.81;4987881;28;7208;-60
2022/09/08 05:23:56;;;;;;;;;;;;;;;28.23;43.90;93918.09;5007267;28;6948;-60
2022/09/08 05:26:39;;;;;;;;;;;;;;;28.21;43.09;93915.13;4985176;28;7223;-60
2022/09/08 05:29:34;;;;;;;;;;;;;;;28.20;43.03;93933.03;4986812;28;7521;-60
2022/09/08 05:32:02;;;;;;;;;;;;;;;28.21;42.97;93945.56;4963855;28;9623;-60
2022/09/08 05:34:28;;;;;;;;;;;;;;;28.19;42.72;93950.88;4963905;28;10275;-61
2022/09/08 05:36:56;;;;;;;;;;;;;;;28.20;42.72;93952.38;4963701;28;9513;-60
2022/09/08 05:39:24;;;;;;;;;;;;;;;28.19;42.68;93952.91;4961905;28;7317;-60
2022/09/08 05:41:50;;;;;;;;;;;;;;;28.21;43.32;93956.63;4969590;28;7269;-60
2022/09/08 05:44:28;;;;;;;;;;;;;;;28.22;43.25;93957.38;4954294;28;7360;-60
2022/09/08 05:47:03;;;;;;;;;;;;;;;28.22;43.27;93954.59;4964003;28;7074;-61
2022/09/08 05:49:38;;;;;;;;;;;;;;;28.19;42.90;93966.72;4965734;28;8690;-61
2022/09/08 05:52:05;;;;;;;;;;;;;;;28.21;42.79;93969.69;4953163;28;9478;-60
2022/09/08 05:54:56;;;;;;;;;;;;;;;28.22;42.67;93976.72;4947084;28;7070;-60
2022/09/08 05:57:28;;;;;;;;;;;;;;;28.23;42.32;93983.75;4964447;28;7041;-60
2022/09/08 06:00:06;;;;;;;;;;;;;;;28.24;41.99;93990.75;4947539;28;6945;-60
2022/09/08 06:02:32;;;;;;;;;;;;;;;28.23;42.05;93989.28;4960112;28;7457;-60
2022/09/08 06:05:10;;;;;;;;;;;;;;;28.24;41.85;93985.22;4949265;28;6995;-60
2022/09/08 06:07:46;;;;;;;;;;;;;;;28.24;41.69;93980.44;4965815;28;7870;-61
2022/09/08 06:10:24;;;;;;;;;;;;;;;28.23;42.00;93986.53;4981407;28;9133;-61
2022/09/08 06:13:01;;;;;;;;;;;;;;;28.23;42.32;93992.06;4986781;28;6997;-60
2022/09/08 06:15:29;;;;;;;;;;;;;;;28.20;42.67;93982.06;4985074;28;9704;-60
2022/09/08 06:18:11;;;;;;;;;;;;;;;28.22;42.76;93987.78;4988505;28;7381;-60
2022/09/08 06:20:44;;;;;;;;;;;;;;;28.24;42.57;93993.53;4981352;28;7989;-60
2022/09/08 06:23:16;;;;;;;;;;;;;;;28.23;42.41;93983.75;4988935;28;9242;-60
2022/09/08 06:25:47;;;;;;;;;;;;;;;28.24;42.55;93997.03;4987967;28;7244;-60
2022/09/08 06:28:53;;;;;;;;;;;;;;;28.24;42.54;93991.50;5010236;28;9033;-60
2022/09/08 06:31:29;;;;;;;;;;;;;;;28.26;42.72;93988.19;4986374;28;9437;-61
2022/09/08 06:34:13;;;;;;;;;;;;;;;28.26;42.28;93997.25;4987854;28;9399;-60
2022/09/08 06:37:31;;;;;;;;;;;;;;;28.26;42.48;93999.25;5016637;28;7324;-60
2022/09/08 06:40:04;;;;;;;;;;;;;;;28.26;42.99;93999.25;4966392;28;7316;-60
2022/09/08 06:42:35;;;;;;;;;;;;;;;28.28;42.93;94002.22;4950063;28;9407;-60
2022/09/08 06:45:39;;;;;;;;;;;;;;;28.26;42.88;93999.25;4948153;28;7139;-60
2022/09/08 06:48:37;;;;;;;;;;;;;;;28.25;42.57;94003.31;4922098;29;7313;-61
2022/09/08 06:51:28;;;;;;;;;;;;;;;28.24;42.97;93997.03;4893947;29;7317;-60
2022/09/08 06:54:17;;;;;;;;;;;;;;;28.24;42.87;93991.50;4924254;29;7312;-60
2022/09/08 06:57:07;;;;;;;;;;;;;;;28.23;42.66;93994.81;4907687;29;7553;-61
2022/09/08 07:00:10;;;;;;;;;;;;;;;28.21;43.09;93989.06;4925372;29;8667;-61
2022/09/08 07:02:56;;;;;;;;;;;;;;;28.20;43.36;93998.66;4911529;29;7775;-60
2022/09/08 07:06:15;;;;;;;;;;;;;;;28.17;43.59;94003.22;4925861;29;9471;-60
2022/09/08 07:08:59;;;;;;;;;;;;;;;28.17;43.91;93997.69;4865938;29;7689;-61
2022/09/08 07:12:10;;;;;;;;;;;;;;;28.18;43.34;94003.97;4851913;29;7950;-60
2022/09/08 07:15:17;;;;;;;;;;;;;;;28.18;43.62;94003.97;4866467;29;7749;-60
2022/09/08 07:18:28;;;;;;;;;;;;;;;28.18;43.30;94009.50;4833484;29;7162;-60
2022/09/08 07:21:32;;;;;;;;;;;;;;;28.19;43.38;94010.97;4848302;29;7289;-60
2022/09/08 07:24:16;;;;;;;;;;;;;;;28.17;43.44;94008.75;4899751;29;7766;-60
2022/09/08 07:26:55;;;;;;;;;;;;;;;28.16;43.69;94010.06;4897293;29;7672;-60
2022/09/08 07:29:40;;;;;;;;;;;;;;;28.16;43.84;94007.28;4899816;29;9512;-61
2022/09/08 07:32:23;;;;;;;;;;;;;;;28.17;43.63;94002.47;4902188;29;9445;-61
2022/09/08 07:35:00;;;;;;;;;;;;;;;28.17;43.45;94006.00;4885948;29;7256;-61
2022/09/08 07:37:54;;;;;;;;;;;;;;;28.19;43.53;94010.97;4887997;29;7006;-60
2022/09/08 07:40:24;;;;;;;;;;;;;;;28.17;43.49;94006.00;4872024;29;7566;-61
2022/09/08 07:42:58;;;;;;;;;;;;;;;28.18;43.90;94007.50;4884504;29;9353;-61
2022/09/08 07:45:41;;;;;;;;;;;;;;;28.17;43.49;94003.22;4967850;28;9093;-60
2022/09/08 07:48:34;;;;;;;;;;;;;;;28.18;43.52;94007.50;5002011;28;7240;-60
2022/09/08 07:51:13;;;;;;;;;;;;;;;28.17;43.36;94014.28;5004615;28;7533;-60
2022/09/08 07:54:01;;;;;;;;;;;;;;;28.17;43.46;94016.31;4985451;28;9313;-61
2022/09/08 07:56:43;;;;;;;;;;;;;;;28.17;43.61;94008.00;4980917;28;6984;-60
2022/09/08 07:59:20;;;;;;;;;;;;;;;28.19;43.84;94008.22;5004015;28;7235;-60
2022/09/08 08:02:37;;;;;;;;;;;;;;;28.20;43.60;94004.19;4989309;28;7228;-60
2022/09/08 08:05:39;;;;;;;;;;;;;;;28.20;43.58;94006.94;4991928;28;7472;-60
2022/09/08 08:09:03;;;;;;;;;;;;;;;28.20;43.74;94012.47;4999369;28;7477;-60
2022/09/08 08:12:27;;;;;;;;;;;;;;;28.18;43.55;94003.97;4989306;28;9735;-60
2022/09/08 08:15:06;;;;;;;;;;;;;;;28.19;43.74;94008.97;4956296;28;7204;-60
2022/09/08 08:17:56;;;;;;;;;;;;;;;28.20;43.06;94012.47;4956832;28;7492;-60
2022/09/08 08:20:51;;;;;;;;;;;;;;;28.19;43.27;94011.72;4958045;28;7623;-60
2022/09/08 08:23:55;;;;;;;;;;;;;;;28.21;43.57;94011.94;4951790;28;7447;-60
2022/09/08 08:27:07;;;;;;;;;;;;;;;28.19;43.27;94022.03;4946199;28;7284;-60
2022/09/08 08:29:40;;;;;;;;;;;;;;;28.19;44.04;94022.03;4955438;28;7305;-60
2022/09/08 08:32:12;;;;;;;;;;;;;;;28.18;43.33;94024.09;4954700;28;7530;-60
2022/09/08 08:35:17;;;;;;;;;;;;;;;28.19;43.54;94019.28;4952463;28;7088;-60
2022/09/08 08:37:49;;;;;;;;;;;;;;;28.20;43.34;94024.28;4935267;28;7364;-60
2022/09/08 08:40:46;;;;;;;;;;;;;;;28.20;42.90;94026.31;4928335;28;10851;-60
2022/09/08 08:43:27;;;;;;;;;;;;;;;28.22;42.87;94020.97;4937578;28;7293;-60
2022/09/08 08:46:14;;;;;;;;;;;;;;;28.21;43.06;94025.00;4976882;28;6981;-60
2022/09/08 08:49:06;;;;;;;;;;;;;;;28.22;43.34;94026.50;4997881;28;8523;-60
2022/09/08 08:51:54;;;;;;;;;;;;;;;28.21;43.55;94020.22;5003897;28;7235;-60
2022/09/08 08:55:08;;;;;;;;;;;;;;;28.20;43.36;94021.53;4996953;28;9672;-60
2022/09/08 08:58:27;;;;;;;;;;;;;;;28.20;43.27;94021.53;4985102;28;7248;-60
2022/09/08 09:01:36;;;;;;;;;;;;;;;28.20;42.99;94029.06;4948574;28;7254;-60
2022/09/08 09:04:34;;;;;;;;;;;;;;;28.22;43.09;94030.03;4943423;28;7146;-60
2022/09/08 09:07:21;;;;;;;;;;;;;;;28.22;43.27;94029.28;4942427;28;8589;-60
2022/09/08 09:10:24;;;;;;;;;;;;;;;28.22;43.32;94021.72;4940005;28;7202;-60
2022/09/08 09:13:38;;;;;;;;;;;;;;;28.25;43.02;94026.16;4950552;28;8990;-60
2022/09/08 09:16:31;;;;;;;;;;;;;;;28.24;43.05;94026.72;4945004;28;8658;-60
2022/09/08 09:19:38;;;;;;;;;;;;;;;28.23;42.73;94025.97;4933398;28;9231;-60
2022/09/08 09:22:53;;;;;;;;;;;;;;;28.24;43.18;94029.47;4907455;29;6952;-60
2022/09/08 09:25:42;;;;;;;;;;;;;;;28.25;43.10;94028.22;4926175;28;10753;-61
2022/09/08 09:28:46;;;;;;;;;;;;;;;28.26;42.99;94019.38;4911704;29;7029;-60
2022/09/08 09:31:32;;;;;;;;;;;;;;;28.25;42.99;94020.63;4910778;29;7010;-60
2022/09/08 09:34:29;;;;;;;;;;;;;;;28.26;43.25;94016.59;4923741;29;7228;-60
2022/09/08 09:37:48;;;;;;;;;;;;;;;28.26;42.69;94016.59;4926296;29;6941;-60
2022/09/08 09:40:13;;;;;;;;;;;;;;;28.24;43.42;94015.66;4943821;28;7719;-59
2022/09/08 09:42:45;;;;;;;;;;;;;;;28.26;43.07;94021.38;4944959;28;7353;-60
2022/09/08 09:45:35;;;;;;;;;;;;;;;28.26;43.30;94021.38;4949441;28;7381;-60
2022/09/08 09:48:41;;;;;;;;;;;;;;;28.27;42.86;94014.59;4928402;29;9794;-60
2022/09/08 09:51:11;;;;;;;;;;;;;;;28.27;43.44;94017.34;4915083;29;7263;-60
2022/09/08 09:54:27;;;;;;;;;;;;;;;28.27;43.06;94022.88;4933827;29;7603;-60
2022/09/08 09:57:27;;;;;;;;;;;;;;;28.28;43.52;94011.28;4932823;29;7700;-60
2022/09/08 10:00:08;;;;;;;;;;;;;;;28.29;43.15;94006.50;4938659;28;7177;-61
2022/09/08 10:03:08;;;;;;;;;;;;;;;28.30;43.49;94002.44;4980117;28;7624;-60
2022/09/08 10:06:16;;;;;;;;;;;;;;;28.29;42.76;94006.50;5004357;28;7386;-60
2022/09/08 10:09:19;;;;;;;;;;;;;;;28.32;43.45;94010.94;4983620;28;7320;-61
2022/09/08 10:12:22;;;;;;;;;;;;;;;28.34;42.96;94011.13;4987804;28;8999;-61
2022/09/08 10:15:15;;;;;;;;;;;;;;;28.33;43.21;94012.44;4973633;28;9308;-61
2022/09/08 10:18:21;;;;;;;;;;;;;;;28.34;43.17;94006.34;4997899;28;7242;-61
2022/09/08 10:21:25;;;;;;;;;;;;;;;28.36;42.92;94009.31;4998289;28;7192;-61
2022/09/08 10:24:27;;;;;;;;;;;;;;;28.38;43.13;94000.50;5004356;28;8099;-61
2022/09/08 10:27:24;;;;;;;;;;;;;;;28.40;43.23;93999.94;4990692;28;7512;-61
2022/09/08 10:30:11;;;;;;;;;;;;;;;28.40;42.92;94002.72;5004655;28;8026;-61
2022/09/08 10:32:58;;;;;;;;;;;;;;;28.42;43.31;94002.91;5009640;28;7229;-61
2022/09/08 10:35:39;;;;;;;;;;;;;;;28.41;43.51;93995.88;5011525;28;7265;-61
2022/09/08 10:38:44;;;;;;;;;;;;;;;28.43;43.07;93993.34;4992644;28;7060;-61
2022/09/08 10:41:41;;;;;;;;;;;;;;;28.41;43.17;94002.16;4996385;28;7924;-60
2022/09/08 10:44:18;;;;;;;;;;;;;;;28.40;42.77;94002.72;5015843;28;7279;-61
2022/09/08 10:47:02;;;;;;;;;;;;;;;28.40;43.39;93992.41;5006623;28;7488;-61
2022/09/08 10:49:54;;;;;;;;;;;;;;;28.41;43.35;93998.66;5008866;28;7055;-61
2022/09/08 10:53:04;;;;;;;;;;;;;;;28.39;43.31;93990.91;5012167;28;7443;-61
2022/09/08 10:56:08;;;;;;;;;;;;;;;28.35;43.35;93991.25;5010613;28;7809;-60
2022/09/08 10:59:15;;;;;;;;;;;;;;;28.33;43.41;93988.28;4994917;28;8680;-61
2022/09/08 11:02:20;;;;;;;;;;;;;;;28.32;43.48;93988.78;4994637;28;9201;-61
2022/09/08 11:05:19;;;;;;;;;;;;;;;28.32;43.85;93991.56;4990713;28;7355;-61
2022/09/08 11:08:14;;;;;;;;;;;;;;;28.31;43.45;93984.56;4992071;28;9430;-61
2022/09/08 11:11:04;;;;;;;;;;;;;;;28.33;43.34;93984.75;4990047;28;7237;-60
2022/09/08 11:14:19;;;;;;;;;;;;;;;28.34;43.21;93978.69;4991478;28;6865;-60
2022/09/08 11:17:22;;;;;;;;;;;;;;;28.36;43.66;93978.16;4952477;28;7750;-60
2022/09/08 11:20:23;;;;;;;;;;;;;;;28.38;43.49;93988.69;4948370;28;7318;-60
2022/09/08 11:23:20;;;;;;;;;;;;;;;28.43;43.28;93988.53;4892089;29;7354;-60
2022/09/08 11:26:12;;;;;;;;;;;;;;;28.45;43.56;93985.97;4895963;29;7402;-60
2022/09/08 11:29:05;;;;;;;;;;;;;;;28.48;43.07;93992.47;4879348;29;7720;-60
2022/09/08 11:32:07;;;;;;;;;;;;;;;28.50;43.42;93990.63;4888029;29;9365;-60
2022/09/08 11:35:17;;;;;;;;;;;;;;;28.53;43.22;93994.34;4872747;29;7698;-60
2022/09/08 11:38:15;;;;;;;;;;;;;;;28.54;43.35;93996.56;4895522;29;7085;-60
2022/09/08 11:40:56;;;;;;;;;;;;;;;28.54;43.50;93979.97;4895659;29;7140;-60
2022/09/08 11:43:49;;;;;;;;;;;;;;;28.58;43.18;93996.28;4895544;29;9575;-60
2022/09/08 11:46:48;;;;;;;;;;;;;;;28.60;43.57;93991.66;4896999;29;7455;-61
2022/09/08 11:49:36;;;;;;;;;;;;;;;28.60;43.56;93994.44;4880137;29;7483;-61
2022/09/08 11:52:20;;;;;;;;;;;;;;;28.59;43.26;93995.75;4882397;29;9617;-61
2022/09/08 11:55:20;;;;;;;;;;;;;;;28.59;43.29;93989.44;4930057;28;6982;-61
2022/09/08 11:58:00;;;;;;;;;;;;;;;28.56;43.52;93988.47;4915387;29;9093;-61
2022/09/08 12:01:12;;;;;;;;;;;;;;;28.55;43.55;93989.03;4988219;28;7776;-61
2022/09/08 12:04:00;;;;;;;;;;;;;;;28.52;43.73;93990.84;4941848;28;9438;-61
2022/09/08 12:07:00;;;;;;;;;;;;;;;28.51;43.69;93989.38;4932354;28;9451;-61
2022/09/08 12:09:43;;;;;;;;;;;;;;;28.49;43.77;93993.97;4935697;28;7380;-61
2022/09/08 12:12:29;;;;;;;;;;;;;;;28.50;43.11;93998.19;4914234;28;7401;-61
2022/09/08 12:15:36;;;;;;;;;;;;;;;28.52;43.33;93996.38;4935111;28;7167;-60
2022/09/08 12:18:04;;;;;;;;;;;;;;;28.51;43.14;93997.66;4939722;28;7409;-61
2022/09/08 12:20:51;;;;;;;;;;;;;;;28.57;43.29;93995.53;4933374;28;7962;-61
2022/09/08 12:23:31;;;;;;;;;;;;;;;28.59;42.77;93987.44;4939572;28;6990;-61
2022/09/08 12:26:17;;;;;;;;;;;;;;;28.59;43.05;93992.97;4939632;28;9775;-61
2022/09/08 12:29:01;;;;;;;;;;;;;;;28.55;42.76;93995.31;4941123;28;7422;-61
2022/09/08 12:31:46;;;;;;;;;;;;;;;28.55;42.84;93992.53;4937260;28;8522;-61
2022/09/08 12:34:33;;;;;;;;;;;;;;;28.53;42.52;93992.34;4934552;28;7173;-61
2022/09/08 12:37:43;;;;;;;;;;;;;;;28.53;42.64;93995.09;4937908;28;7849;-61
2022/09/08 12:40:30;;;;;;;;;;;;;;;28.52;42.77;93999.13;4912779;29;7501;-61
2022/09/08 12:43:13;;;;;;;;;;;;;;;28.54;42.89;93990.28;4913181;29;7461;-61
2022/09/08 12:45:48;;;;;;;;;;;;;;;28.54;42.47;93982.75;4911904;29;8318;-61
2022/09/08 12:48:31;;;;;;;;;;;;;;;28.58;42.26;93985.94;4927847;28;8352;-60
2022/09/08 12:51:13;;;;;;;;;;;;;;;28.60;42.47;93985.41;4929677;28;7253;-61
2022/09/08 12:54:08;;;;;;;;;;;;;;;28.60;42.51;93983.38;4911232;29;8779;-61
2022/09/08 12:57:25;;;;;;;;;;;;;;;28.65;42.71;93993.56;4912560;29;7215;-61
2022/09/08 13:00:16;;;;;;;;;;;;;;;28.69;43.28;93988.44;4911453;29;7288;-61
2022/09/08 13:02:45;;;;;;;;;;;;;;;28.72;43.05;93983.84;4906037;29;8918;-61
2022/09/08 13:05:35;;;;;;;;;;;;;;;28.75;42.90;93977.25;4909288;29;7288;-61
2022/09/08 13:08:35;;;;;;;;;;;;;;;28.76;42.43;93982.22;4911594;29;9365;-60
2022/09/08 13:11:22;;;;;;;;;;;;;;;28.81;42.90;93978.59;4905341;29;7017;-60
2022/09/08 13:13:48;;;;;;;;;;;;;;;28.82;43.02;93982.06;4917661;28;9467;-61
2022/09/08 13:16:18;;;;;;;;;;;;;;;28.80;43.31;93976.34;4930955;28;7701;-61
2022/09/08 13:19:13;;;;;;;;;;;;;;;28.84;43.00;93987.84;4949214;28;7064;-61
2022/09/08 13:21:41;;;;;;;;;;;;;;;28.82;43.33;93987.59;4963734;28;7388;-61
2022/09/08 13:24:30;;;;;;;;;;;;;;;28.84;42.80;93990.59;4949183;28;9039;-61
2022/09/08 13:27:17;;;;;;;;;;;;;;;28.81;42.36;93984.13;4940004;28;7179;-61
2022/09/08 13:29:55;;;;;;;;;;;;;;;28.80;41.46;93995.72;4948153;28;7654;-61
2022/09/08 13:32:44;;;;;;;;;;;;;;;28.83;40.73;93983.56;4964449;28;7907;-61
2022/09/08 13:35:38;;;;;;;;;;;;;;;28.83;40.80;93983.56;4952760;28;7240;-60
2022/09/08 13:38:18;;;;;;;;;;;;;;;28.79;40.32;93983.16;4982513;28;6997;-61
2022/09/08 13:40:50;;;;;;;;;;;;;;;28.83;39.43;93983.56;4983485;28;7973;-61
2022/09/08 13:43:16;;;;;;;;;;;;;;;28.80;38.94;93984.63;5007222;28;6941;-61
2022/09/08 13:45:58;;;;;;;;;;;;;;;28.81;38.63;93986.88;4983963;28;7455;-61
2022/09/08 13:48:55;;;;;;;;;;;;;;;28.84;38.37;93982.28;4986952;28;7287;-61
2022/09/08 13:51:58;;;;;;;;;;;;;;;28.81;38.52;93981.34;4937267;28;6993;-60
2022/09/08 13:54:42;;;;;;;;;;;;;;;28.80;37.77;93985.38;4952357;28;9488;-61
2022/09/08 13:57:33;;;;;;;;;;;;;;;28.85;38.16;93978.97;4948933;28;6988;-61
2022/09/08 14:00:06;;;;;;;;;;;;;;;28.87;37.93;93983.97;4944867;28;9097;-60
2022/09/08 14:03:09;;;;;;;;;;;;;;;28.86;37.59;93977.69;4940457;28;9432;-61
2022/09/08 14:05:48;;;;;;;;;;;;;;;28.83;37.73;93980.81;4940012;28;9745;-61
2022/09/08 14:08:42;;;;;;;;;;;;;;;28.87;37.68;93967.34;4947262;28;7286;-60
2022/09/08 14:11:31;;;;;;;;;;;;;;;28.90;37.24;93972.56;4967619;28;8983;-60
2022/09/08 14:14:32;;;;;;;;;;;;;;;28.92;37.04;93970.00;4949405;28;7426;-61
2022/09/08 14:17:22;;;;;;;;;;;;;;;28.94;36.39;93972.22;4948996;28;9610;-61
2022/09/08 14:20:12;;;;;;;;;;;;;;;28.97;36.14;93974.63;4935835;28;7218;-61
2022/09/08 14:22:58;;;;;;;;;;;;;;;28.99;36.33;93966.50;4946986;28;7219;-61
2022/09/08 14:25:40;;;;;;;;;;;;;;;29.02;35.22;93967.47;4949617;28;7466;-61
2022/09/08 14:28:14;;;;;;;;;;;;;;;29.04;35.96;93971.16;4959081;28;7833;-61
2022/09/08 14:31:12;;;;;;;;;;;;;;;29.08;35.30;93965.28;4979767;28;7191;-61
2022/09/08 14:33:57;;;;;;;;;;;;;;;29.08;34.94;93968.78;4981066;28;7148;-60